Time;durP1;ratioP1;P1;durP2;ratioP2;P2;SDS_P1;SDS_P2;PMS_P1;PMS_P2;Temp;Humidity;BMP_temperature;BMP_pressure;BME280_temperature;BME280_humidity;BME280_pressure;Samples;Min_cycle;Max_cycle;Signal;HPM_P1;HPM_P2
2022/12/02 00:01:39;;;;;;;35.25;18.63;;;3.20;99.90;;;2.15;100.00;98186.16;5055707;28;20064;-71
2022/12/02 00:04:24;;;;;;;37.80;18.95;;;3.20;99.90;;;2.04;100.00;98175.91;5039761;28;20076;-71
2022/12/02 00:06:55;;;;;;;34.50;18.50;;;3.10;99.90;;;2.19;100.00;98172.50;5041002;28;20049;-70
2022/12/02 00:09:33;;;;;;;37.50;19.25;;;3.10;99.90;;;2.16;100.00;98179.31;5038197;28;20076;-68
2022/12/02 00:12:21;;;;;;;37.50;19.95;;;3.20;99.90;;;2.13;100.00;98171.66;5039541;28;20045;-71
2022/12/02 00:15:00;;;;;;;45.05;20.48;;;3.10;99.90;;;2.13;100.00;98169.09;5043187;28;20069;-70
2022/12/02 00:17:27;;;;;;;38.47;20.52;;;3.20;99.90;;;2.05;100.00;98162.25;5042011;28;20049;-69
2022/12/02 00:19:54;;;;;;;43.90;22.85;;;3.10;99.90;;;1.95;100.00;98168.22;5042862;28;20041;-70
2022/12/02 00:22:21;;;;;;;34.10;18.92;;;3.10;99.90;;;2.02;100.00;98163.97;5056616;28;20104;-69
2022/12/02 00:24:48;;;;;;;37.25;20.92;;;3.10;99.90;;;2.08;100.00;98163.97;5038654;28;20076;-70
2022/12/02 00:27:15;;;;;;;33.13;17.60;;;3.10;99.90;;;2.10;100.00;98164.81;5040439;28;20053;-69
2022/12/02 00:29:42;;;;;;;41.90;19.35;;;3.10;99.90;;;2.12;100.00;98164.81;5040507;28;20061;-70
2022/12/02 00:32:09;;;;;;;38.90;20.88;;;3.20;99.90;;;2.13;100.00;98156.28;5038657;28;20815;-70
2022/12/02 00:34:36;;;;;;;39.88;19.60;;;3.10;99.90;;;2.05;100.00;98158.81;5041391;28;20044;-70
2022/12/02 00:37:03;;;;;;;42.42;21.15;;;3.10;99.90;;;2.00;100.00;98156.25;5040845;28;20068;-70
2022/12/02 00:39:30;;;;;;;39.78;19.85;;;3.10;99.90;;;2.14;100.00;98147.75;5040910;28;20053;-70
2022/12/02 00:41:57;;;;;;;36.45;19.52;;;3.10;99.90;;;2.06;100.00;98152.88;5039221;28;20057;-70
2022/12/02 00:47:09;;;;;;;39.45;20.75;;;3.10;99.90;;;2.10;100.00;98157.16;5040931;28;20063;-70
2022/12/02 00:49:36;;;;;;;38.60;19.15;;;3.10;99.90;;;2.07;100.00;98152.84;5036959;28;20051;-70
2022/12/02 00:52:03;;;;;;;39.78;20.73;;;3.10;99.90;;;2.03;100.00;98148.59;5039817;28;20564;-70
2022/12/02 00:54:30;;;;;;;38.45;20.25;;;3.10;99.90;;;2.01;100.00;98144.34;5040750;28;20054;-71
2022/12/02 00:56:57;;;;;;;37.38;19.20;;;3.10;99.90;;;2.06;100.00;98142.63;5040852;28;20478;-70
2022/12/02 00:59:24;;;;;;;33.67;17.65;;;3.10;99.90;;;2.11;100.00;98138.34;5037284;28;20060;-69
2022/12/02 01:01:51;;;;;;;38.40;18.90;;;3.10;99.90;;;2.10;100.00;98144.34;5035841;28;20044;-70
2022/12/02 01:04:18;;;;;;;37.97;19.30;;;3.10;99.90;;;2.16;100.00;98144.31;5039975;28;20183;-70
2022/12/02 01:06:45;;;;;;;34.45;18.95;;;3.10;99.90;;;2.01;100.00;98136.66;5039827;28;20418;-70
2022/12/02 01:09:12;;;;;;;38.50;20.33;;;3.20;99.90;;;2.13;100.00;98143.47;5040814;28;20049;-70
2022/12/02 01:11:39;;;;;;;41.22;21.48;;;3.20;99.90;;;2.18;100.00;98134.09;5039138;28;20048;-70
2022/12/02 01:14:06;;;;;;;34.95;19.70;;;3.20;99.90;;;2.07;100.00;98132.34;5040278;28;20049;-70
2022/12/02 01:16:32;;;;;;;38.80;19.80;;;3.20;99.90;;;2.01;100.00;98134.94;5039663;28;20053;-70
2022/12/02 01:18:59;;;;;;;37.60;19.27;;;3.20;99.90;;;2.09;100.00;98135.78;5036606;28;20493;-69
2022/12/02 01:21:26;;;;;;;39.50;21.60;;;3.20;99.90;;;2.08;100.00;98128.13;5040793;28;20151;-70
2022/12/02 01:23:53;;;;;;;42.08;22.23;;;3.10;99.90;;;2.07;100.00;98129.81;5037861;28;20152;-71
2022/12/02 01:26:20;;;;;;;36.20;19.27;;;3.10;99.90;;;2.07;100.00;98128.94;5037477;28;20128;-70
2022/12/02 01:28:47;;;;;;;42.53;20.70;;;3.20;99.90;;;2.15;100.00;98127.25;5038475;28;20075;-70
2022/12/02 01:31:14;;;;;;;38.38;20.13;;;3.20;99.90;;;2.16;100.00;98128.94;5035076;28;20609;-71
2022/12/02 01:33:41;;;;;;;39.80;19.42;;;3.10;99.90;;;2.21;100.00;98126.38;5038697;28;20061;-70
2022/12/02 01:36:09;;;;;;;41.55;21.33;;;3.20;99.90;;;2.12;100.00;98134.06;5038082;28;20059;-70
2022/12/02 01:38:36;;;;;;;36.67;19.45;;;3.20;99.90;;;2.13;100.00;98123.84;5038468;28;20530;-70
2022/12/02 01:41:04;;;;;;;35.83;18.00;;;3.20;99.90;;;2.21;100.00;98131.50;5040722;28;20178;-69
2022/12/02 01:43:31;;;;;;;36.38;19.98;;;3.20;99.90;;;2.09;100.00;98133.22;5037198;28;20068;-70
2022/12/02 01:45:58;;;;;;;40.92;21.60;;;3.20;99.90;;;2.16;100.00;98130.66;5039562;28;20499;-70
2022/12/02 01:48:25;;;;;;;37.25;18.63;;;3.20;99.90;;;2.19;100.00;98134.09;5037521;28;20048;-69
2022/12/02 01:50:52;;;;;;;40.97;21.88;;;3.30;99.90;;;2.26;100.00;98135.78;5038937;28;20041;-70
2022/12/02 01:53:19;;;;;;;37.17;19.33;;;3.20;99.90;;;2.14;100.00;98130.66;5040917;28;20057;-69
2022/12/02 01:55:47;;;;;;;40.05;20.60;;;3.30;99.90;;;2.18;100.00;98131.53;5039769;28;20041;-70
2022/12/02 01:58:26;;;;;;;40.00;21.27;;;3.20;99.90;;;2.25;100.00;98133.22;5035872;28;20132;-70
2022/12/02 02:00:54;;;;;;;38.63;20.23;;;3.30;99.90;;;2.30;100.00;98137.50;5037983;28;20048;-69
2022/12/02 02:03:22;;;;;;;38.55;20.25;;;3.30;99.90;;;2.20;100.00;98125.53;5037487;28;20060;-69
2022/12/02 02:05:49;;;;;;;34.22;17.25;;;3.30;99.90;;;2.48;100.00;98128.91;5040662;28;20052;-70
2022/12/02 02:08:17;;;;;;;40.78;20.35;;;3.30;99.90;;;2.41;100.00;98136.63;5041718;28;20060;-70
2022/12/02 02:10:46;;;;;;;43.35;20.85;;;3.40;99.90;;;2.33;100.00;98135.75;5039860;28;20052;-70
2022/12/02 02:13:15;;;;;;;43.22;23.30;;;3.40;99.90;;;2.16;100.00;98122.97;5041298;28;20053;-71
2022/12/02 02:15:44;;;;;;;43.97;22.25;;;3.30;99.90;;;2.16;100.00;98123.81;5041124;28;20057;-71
2022/12/02 02:18:12;;;;;;;40.97;21.83;;;3.20;99.90;;;2.26;100.00;98130.66;5047364;28;20040;-70
2022/12/02 02:20:40;;;;;;;35.58;19.98;;;3.30;99.90;;;2.31;100.00;98128.09;5044300;28;20053;-70
2022/12/02 02:23:07;;;;;;;42.25;20.63;;;3.20;99.90;;;2.36;100.00;98122.97;5043102;28;20993;-70
2022/12/02 02:25:47;;;;;;;43.33;21.70;;;3.30;99.90;;;2.28;100.00;98126.41;5045799;28;20667;-71
2022/12/02 02:28:14;;;;;;;40.63;19.65;;;3.30;99.90;;;2.36;100.00;98120.41;5061387;28;20222;-69
2022/12/02 02:30:41;;;;;;;35.60;20.17;;;3.30;99.90;;;2.28;100.00;98118.72;5060562;28;20135;-69
2022/12/02 02:33:12;;;;;;;38.72;20.77;;;3.40;99.90;;;2.35;100.00;98119.56;5046379;28;20072;-70
2022/12/02 02:35:41;;;;;;;38.75;20.13;;;3.40;99.90;;;2.25;100.00;98116.13;5045007;28;20052;-71
2022/12/02 02:38:14;;;;;;;39.97;20.77;;;3.40;99.90;;;2.30;100.00;98123.81;5042469;28;20049;-70
2022/12/02 02:40:42;;;;;;;42.78;21.35;;;3.40;99.90;;;2.32;100.00;98114.44;5041447;28;20083;-70
2022/12/02 02:43:10;;;;;;;39.47;20.90;;;3.30;99.90;;;2.18;100.00;98111.03;5044704;28;20064;-70
2022/12/02 02:45:39;;;;;;;39.10;20.58;;;3.30;99.90;;;2.20;100.00;98111.88;5044094;28;20048;-69
2022/12/02 02:48:10;;;;;;;38.45;19.25;;;3.30;99.90;;;2.22;100.00;98105.91;5042509;28;20500;-70
2022/12/02 02:50:41;;;;;;;40.55;21.58;;;3.30;99.90;;;2.27;100.00;98111.03;5060766;28;20053;-70
2022/12/02 02:53:09;;;;;;;48.47;23.88;;;3.20;99.90;;;2.13;100.00;98105.06;5049232;28;20056;-70
2022/12/02 02:55:36;;;;;;;43.30;22.15;;;3.20;99.90;;;2.10;100.00;98103.38;5046060;28;20049;-71
2022/12/02 02:58:13;;;;;;;41.28;21.98;;;3.20;99.90;;;2.12;100.00;98105.91;5048530;28;20753;-70
2022/12/02 03:00:43;;;;;;;50.17;24.98;;;3.20;99.90;;;2.09;100.00;98099.94;5047601;28;20227;-70
2022/12/02 03:03:12;;;;;;;44.35;20.83;;;3.20;99.90;;;2.26;100.00;98097.38;5044332;28;20048;-70
2022/12/02 03:05:40;;;;;;;38.60;21.00;;;3.30;99.90;;;2.27;100.00;98093.09;5046726;28;20080;-70
2022/12/02 03:08:09;;;;;;;47.00;22.33;;;3.30;99.90;;;2.11;100.00;98097.38;5045008;28;20049;-71
2022/12/02 03:10:36;;;;;;;38.35;21.60;;;3.20;99.90;;;2.08;100.00;98087.16;5045383;28;20122;-70
2022/12/02 03:13:07;;;;;;;47.63;24.50;;;3.20;99.90;;;2.00;100.00;98084.56;5043530;28;20049;-70
2022/12/02 03:15:34;;;;;;;40.63;20.55;;;3.10;99.90;;;2.04;100.00;98085.44;5046396;28;20426;-69
2022/12/02 03:18:02;;;;;;;46.45;22.48;;;3.10;99.90;;;2.04;100.00;98083.72;5046679;28;20071;-70
2022/12/02 03:20:29;;;;;;;42.35;21.55;;;3.10;99.90;;;2.00;100.00;98081.16;5045873;28;20045;-70
2022/12/02 03:22:56;;;;;;;44.83;22.67;;;3.10;99.90;;;1.97;100.00;98073.50;5046264;28;20057;-71
2022/12/02 03:25:23;;;;;;;54.72;25.15;;;3.10;99.90;;;1.93;100.00;98075.19;5045969;28;20071;-69
2022/12/02 03:27:50;;;;;;;46.67;23.45;;;3.00;99.90;;;1.86;100.00;98065.81;5042257;28;20053;-70
2022/12/02 03:30:17;;;;;;;54.03;26.52;;;2.90;99.90;;;1.91;100.00;98076.03;5046641;28;20053;-70
2022/12/02 03:32:45;;;;;;;43.90;21.10;;;2.90;99.90;;;1.91;100.00;98074.34;5041846;28;20518;-70
2022/12/02 03:35:12;;;;;;;51.25;23.60;;;3.00;99.90;;;1.99;100.00;98082.88;5048412;28;20076;-70
2022/12/02 03:37:39;;;;;;;48.33;22.88;;;3.00;99.90;;;1.88;100.00;98074.34;5059554;28;20501;-70
2022/12/02 03:40:07;;;;;;;45.95;21.77;;;3.00;99.90;;;1.99;100.00;98075.19;5046043;28;20143;-70
2022/12/02 03:42:34;;;;;;;47.95;22.00;;;3.00;99.90;;;2.04;100.00;98073.47;5056913;28;20064;-69
2022/12/02 03:45:03;;;;;;;55.30;25.33;;;3.10;99.90;;;1.94;100.00;98069.22;5041322;28;20520;-69
2022/12/02 03:47:30;;;;;;;42.85;21.63;;;3.00;99.90;;;1.99;100.00;98072.63;5046503;28;20057;-70
2022/12/02 03:49:58;;;;;;;44.22;22.73;;;3.00;99.90;;;2.01;100.00;98070.09;5043618;28;20683;-70
2022/12/02 03:52:27;;;;;;;52.13;24.90;;;3.00;99.90;;;1.94;100.00;98071.78;5043029;28;20677;-70
2022/12/02 03:54:54;;;;;;;49.90;24.65;;;3.00;99.90;;;1.98;100.00;98073.47;5043170;28;20051;-70
2022/12/02 03:57:22;;;;;;;47.47;23.95;;;3.00;99.90;;;1.98;100.00;98059.81;5042747;28;20047;-70
2022/12/02 03:59:49;;;;;;;48.28;23.48;;;3.00;99.90;;;2.01;100.00;98070.09;5041738;28;20056;-70
2022/12/02 04:02:16;;;;;;;56.75;25.95;;;3.00;99.90;;;1.89;100.00;98068.34;5045868;28;20179;-70
2022/12/02 04:04:43;;;;;;;56.95;25.92;;;2.90;99.90;;;1.86;100.00;98061.53;5041705;28;20611;-70
2022/12/02 04:07:10;;;;;;;42.92;22.80;;;2.90;99.90;;;1.83;100.00;98064.09;5045479;28;20163;-70
2022/12/02 04:09:37;;;;;;;49.50;24.83;;;3.00;99.90;;;2.02;100.00;98059.81;5041898;28;20102;-70
2022/12/02 04:12:04;;;;;;;51.45;25.95;;;3.00;99.90;;;1.93;100.00;98054.72;5043300;28;20057;-70
2022/12/02 04:14:31;;;;;;;42.42;22.40;;;3.00;99.90;;;1.98;100.00;98053.00;5045698;28;20041;-70
2022/12/02 04:16:58;;;;;;;53.63;25.40;;;3.00;99.90;;;1.99;100.00;98043.63;5045329;28;20045;-70
2022/12/02 04:19:29;;;;;;;58.83;27.08;;;3.00;99.90;;;1.92;100.00;98044.50;5044882;28;20493;-71
2022/12/02 04:21:56;;;;;;;55.13;26.27;;;3.00;99.90;;;2.04;100.00;98041.91;5043427;28;20068;-69
2022/12/02 04:24:23;;;;;;;49.00;25.25;;;3.00;99.90;;;2.07;100.00;98044.47;5045984;28;20064;-70
2022/12/02 04:26:50;;;;;;;50.83;24.20;;;3.10;99.90;;;2.04;100.00;98047.88;5046739;28;20044;-70
2022/12/02 04:29:17;;;;;;;44.67;23.88;;;3.10;99.90;;;1.92;100.00;98037.66;5043228;28;20063;-70
2022/12/02 04:31:44;;;;;;;54.83;26.15;;;3.10;99.90;;;1.97;100.00;98035.94;5045398;28;20049;-71
2022/12/02 04:34:11;;;;;;;48.33;24.90;;;3.00;99.90;;;2.01;100.00;98026.56;5043905;28;20135;-70
2022/12/02 04:36:38;;;;;;;56.42;26.80;;;3.00;99.90;;;1.96;100.00;98029.13;5040830;28;20060;-70
2022/12/02 04:39:05;;;;;;;62.75;27.90;;;3.00;99.90;;;1.92;100.00;98024.00;5044061;28;20052;-70
2022/12/02 04:41:32;;;;;;;60.15;27.40;;;3.00;99.90;;;1.93;100.00;98030.81;5046436;28;20048;-70
2022/12/02 04:43:59;;;;;;;50.13;25.23;;;2.90;99.90;;;1.91;100.00;98022.28;5046455;28;20486;-70
2022/12/02 04:46:26;;;;;;;57.75;26.92;;;3.00;99.90;;;1.95;100.00;98026.56;5045098;28;20510;-70
2022/12/02 04:48:53;;;;;;;65.43;28.45;;;3.00;99.90;;;2.00;100.00;98018.00;5046320;28;20477;-69
2022/12/02 04:51:20;;;;;;;57.30;26.77;;;3.00;99.90;;;2.01;100.00;98014.59;5042701;28;20403;-70
2022/12/02 04:53:46;;;;;;;56.10;26.02;;;3.00;99.90;;;1.96;100.00;98015.44;5043528;28;20411;-70
2022/12/02 04:56:13;;;;;;;58.35;26.42;;;3.00;99.90;;;2.03;100.00;98025.69;5044990;28;20048;-70
2022/12/02 04:58:40;;;;;;;54.70;24.42;;;3.00;99.90;;;2.05;100.00;98015.44;5045059;28;20047;-70
2022/12/02 05:01:07;;;;;;;46.90;24.05;;;3.10;99.90;;;2.08;100.00;98015.44;5044485;28;20056;-70
2022/12/02 05:03:34;;;;;;;53.70;26.67;;;3.10;99.90;;;2.06;100.00;98018.00;5039491;28;20052;-70
2022/12/02 05:06:01;;;;;;;60.45;27.15;;;3.10;99.90;;;2.00;100.00;98009.47;5044598;28;20167;-70
2022/12/02 05:08:28;;;;;;;54.13;25.92;;;3.00;99.90;;;2.03;100.00;98012.91;5046270;28;20053;-71
2022/12/02 05:10:55;;;;;;;54.00;25.70;;;3.00;99.90;;;1.93;100.00;98000.94;5046520;28;20051;-70
2022/12/02 05:13:22;;;;;;;51.88;24.15;;;3.00;99.90;;;2.04;100.00;97995.81;5044676;28;20111;-70
2022/12/02 05:15:48;;;;;;;47.30;24.25;;;3.00;99.90;;;2.03;100.00;97992.41;5045226;28;20057;-70
2022/12/02 05:18:16;;;;;;;53.63;25.55;;;3.10;99.90;;;1.93;100.00;97988.16;5044161;28;20049;-70
2022/12/02 05:20:43;;;;;;;59.60;28.15;;;3.00;99.90;;;1.93;100.00;97982.19;5045658;28;20144;-70
2022/12/02 05:23:12;;;;;;;52.47;24.77;;;3.00;99.90;;;1.92;100.00;97991.56;5044485;28;20533;-69
2022/12/02 05:25:39;;;;;;;55.50;26.83;;;3.00;99.90;;;1.87;100.00;97985.59;5044646;28;20140;-70
2022/12/02 05:28:06;;;;;;;57.83;26.77;;;3.00;99.90;;;1.93;100.00;97985.59;5044053;28;20054;-70
2022/12/02 05:30:33;;;;;;;55.45;26.50;;;3.00;99.90;;;1.92;100.00;97981.34;5044329;28;20055;-69
2022/12/02 05:33:00;;;;;;;51.85;25.60;;;3.00;99.90;;;1.92;100.00;97983.91;5043770;28;20045;-70
2022/12/02 05:35:27;;;;;;;61.45;28.40;;;3.00;99.90;;;1.95;100.00;97976.19;5041936;28;20041;-70
2022/12/02 05:37:55;;;;;;;56.38;27.55;;;3.00;99.90;;;1.92;100.00;97977.94;5043906;28;20051;-70
2022/12/02 05:40:29;;;;;;;57.40;27.80;;;3.00;99.90;;;1.89;100.00;97973.66;5043516;28;20056;-70
2022/12/02 05:42:59;;;;;;;59.22;28.58;;;3.00;99.90;;;1.99;100.00;97977.06;5042517;28;20065;-71
2022/12/02 05:45:26;;;;;;;51.78;26.65;;;3.00;99.90;;;2.05;100.00;97974.47;5044155;28;20048;-70
2022/12/02 05:47:53;;;;;;;59.72;27.52;;;3.00;99.90;;;2.02;100.00;97982.16;5050474;28;20159;-71
2022/12/02 05:50:21;;;;;;;55.53;26.13;;;3.00;99.90;;;2.11;100.00;97977.03;5041977;28;20162;-70
2022/12/02 05:52:48;;;;;;;49.63;24.33;;;3.10;99.90;;;1.98;100.00;97981.31;5048503;28;20057;-70
2022/12/02 05:55:20;;;;;;;55.60;26.42;;;3.10;99.90;;;2.00;100.00;97984.72;5047123;28;20060;-71
2022/12/02 05:57:48;;;;;;;56.67;26.40;;;3.10;99.90;;;2.04;100.00;97988.97;5045413;28;20053;-70
2022/12/02 06:00:22;;;;;;;59.90;27.70;;;3.10;99.90;;;2.06;100.00;97981.31;5047638;28;20067;-69
2022/12/02 06:02:59;;;;;;;60.72;27.40;;;3.10;99.90;;;2.05;100.00;97980.47;5049582;28;20065;-71
2022/12/02 06:05:40;;;;;;;55.97;27.50;;;3.10;99.90;;;2.01;100.00;97983.03;5048732;28;20130;-70
2022/12/02 06:08:33;;;;;;;56.97;26.30;;;3.10;99.90;;;2.03;100.00;97984.72;5047667;28;20115;-70
2022/12/02 06:11:27;;;;;;;54.47;25.23;;;3.10;99.90;;;2.11;100.00;97978.75;5047982;28;20612;-70
2022/12/02 06:14:02;;;;;;;56.10;25.17;;;3.10;99.90;;;2.13;100.00;97980.44;5059008;28;20140;-70
2022/12/02 06:16:31;;;;;;;50.58;26.73;;;3.10;99.90;;;2.00;100.00;97982.16;5044677;28;20060;-70
2022/12/02 06:19:10;;;;;;;56.40;26.70;;;3.20;99.90;;;2.07;100.00;97983.00;5046840;28;20129;-70
2022/12/02 06:21:37;;;;;;;59.05;27.50;;;3.20;99.90;;;2.08;100.00;97979.59;5047664;28;20048;-70
2022/12/02 06:24:08;;;;;;;59.30;27.55;;;3.20;99.90;;;2.17;100.00;97978.72;5051252;28;20080;-70
2022/12/02 06:26:35;;;;;;;52.50;25.02;;;3.20;99.90;;;2.13;100.00;97970.19;5047132;28;20054;-70
2022/12/02 06:29:03;;;;;;;53.28;24.80;;;3.30;99.90;;;2.19;100.00;97975.31;5047055;28;20056;-70
2022/12/02 06:31:38;;;;;;;68.07;30.52;;;3.30;99.90;;;2.19;100.00;97970.19;5045701;28;20549;-70
2022/12/02 06:34:27;;;;;;;61.83;28.95;;;3.30;99.90;;;2.04;100.00;97973.63;5046311;28;20443;-70
2022/12/02 06:36:57;;;;;;;61.70;28.55;;;3.20;99.90;;;2.06;100.00;97971.91;5044087;28;20127;-70
2022/12/02 06:39:24;;;;;;;59.42;27.17;;;3.20;99.90;;;2.09;100.00;97966.78;5028411;28;20456;-70
2022/12/02 06:41:52;;;;;;;62.13;28.50;;;3.20;99.90;;;2.04;100.00;97962.53;5047617;28;20095;-69
2022/12/02 06:47:36;;;;;;;76.63;31.15;;;3.20;99.90;;;2.00;100.00;97969.34;5060239;28;20052;-69
2022/12/02 06:50:06;;;;;;;58.72;29.08;;;3.10;99.90;;;1.99;100.00;97971.94;5046028;28;20057;-69
2022/12/02 06:52:37;;;;;;;61.60;30.02;;;3.10;99.90;;;1.90;100.00;97970.25;5062686;28;20045;-71
2022/12/02 06:55:35;;;;;;;71.22;31.35;;;3.10;99.90;;;1.98;100.00;97967.66;5058903;28;20136;-70
2022/12/02 06:58:20;;;;;;;79.78;33.38;;;3.00;99.90;;;1.86;100.00;97969.38;5037619;28;20162;-70
2022/12/02 07:00:48;;;;;;;74.07;31.77;;;2.90;99.90;;;1.84;100.00;97965.97;5044486;28;20045;-71
2022/12/02 07:03:33;;;;;;;78.85;32.72;;;2.90;99.90;;;1.93;100.00;97977.06;5039274;28;20048;-70
2022/12/02 07:06:15;;;;;;;81.10;33.80;;;3.00;99.90;;;1.82;100.00;97970.25;5043873;28;20052;-71
2022/12/02 07:08:42;;;;;;;83.03;32.25;;;2.90;99.90;;;1.79;100.00;97972.81;5042826;28;20060;-70
2022/12/02 07:14:32;;;;;;;84.70;34.00;;;2.90;99.90;;;1.93;100.00;97977.06;5045460;28;20037;-70
2022/12/02 07:17:03;;;;;;;79.60;33.28;;;3.00;99.90;;;1.93;100.00;97966.81;5046937;28;20128;-71
2022/12/02 07:19:37;;;;;;;75.78;32.60;;;3.00;99.90;;;1.92;100.00;97971.09;5036517;28;20438;-71
2022/12/02 07:22:19;;;;;;;66.75;31.05;;;3.00;99.90;;;1.94;100.00;97966.84;5044373;28;20825;-70
2022/12/02 07:25:35;;;;;;;94.78;35.10;;;3.10;99.90;;;1.96;100.00;97964.25;5035359;28;20052;-69
2022/12/02 07:28:22;;;;;;;77.03;30.58;;;3.00;99.90;;;1.97;100.00;97971.09;5026466;28;20507;-70
2022/12/02 07:30:57;;;;;;;90.13;33.03;;;3.10;99.90;;;1.96;100.00;97965.13;5043354;28;20140;-71
2022/12/02 07:33:24;;;;;;;77.65;32.78;;;3.10;99.90;;;1.91;100.00;97973.66;5042317;28;20055;-70
2022/12/02 07:35:51;;;;;;;67.05;31.08;;;3.00;99.90;;;1.96;100.00;97964.25;5043794;28;20051;-71
2022/12/02 07:38:18;;;;;;;74.53;32.75;;;3.10;99.90;;;1.99;100.00;97965.09;5041805;28;20049;-71
2022/12/02 07:41:05;;;;;;;84.15;33.50;;;3.10;99.90;;;1.94;100.00;97961.72;5043375;28;20499;-70
2022/12/02 07:43:33;;;;;;;91.95;35.38;;;3.00;99.90;;;1.87;100.00;97968.53;5041561;28;20073;-69
2022/12/02 07:46:01;;;;;;;93.20;36.65;;;3.00;99.90;;;1.85;100.00;97961.72;5041691;28;20479;-71
2022/12/02 07:48:28;;;;;;;79.32;33.42;;;2.90;99.90;;;1.88;100.00;97959.16;5045046;28;20775;-70
2022/12/02 07:50:55;;;;;;;73.07;32.17;;;3.00;99.90;;;1.81;100.00;97957.47;5045710;28;20057;-71
2022/12/02 07:53:22;;;;;;;82.28;34.80;;;3.10;99.90;;;1.87;100.00;97957.44;5047235;28;20053;-70
2022/12/02 07:55:49;;;;;;;92.43;35.75;;;3.10;99.90;;;1.85;100.00;97956.59;5046646;28;20511;-69
2022/12/02 07:58:16;;;;;;;92.20;34.63;;;3.00;99.90;;;1.87;100.00;97953.19;5045643;28;20171;-70
2022/12/02 08:00:43;;;;;;;92.10;34.78;;;3.00;99.90;;;1.88;100.00;97948.91;5044939;28;20053;-69
2022/12/02 08:03:09;;;;;;;84.68;33.03;;;3.00;99.90;;;2.03;100.00;97951.44;5044387;28;20159;-70
2022/12/02 08:05:36;;;;;;;88.72;35.85;;;3.10;99.90;;;2.03;100.00;97960.81;5046045;28;20040;-70
2022/12/02 08:08:03;;;;;;;72.03;32.97;;;3.10;99.90;;;1.99;100.00;97946.34;5042903;28;20144;-70
2022/12/02 08:10:30;;;;;;;86.18;33.80;;;3.10;99.90;;;2.11;100.00;97951.41;5045810;28;20099;-70
2022/12/02 08:12:57;;;;;;;78.22;32.88;;;3.10;99.90;;;2.14;100.00;97945.44;5045025;28;20060;-70
2022/12/02 08:15:24;;;;;;;87.45;33.72;;;3.20;99.90;;;2.17;100.00;97950.56;5045660;28;20041;-70
2022/12/02 08:17:51;;;;;;;78.40;33.00;;;3.20;99.90;;;2.11;100.00;97946.28;5044059;28;20052;-70
2022/12/02 08:20:19;;;;;;;75.03;32.78;;;3.20;99.90;;;1.99;100.00;97948.91;5041843;28;20064;-70
2022/12/02 08:22:46;;;;;;;97.68;36.78;;;3.30;99.90;;;2.09;100.00;97948.84;5042183;28;20053;-70
2022/12/02 08:25:13;;;;;;;91.32;35.13;;;3.20;99.90;;;2.15;100.00;97945.44;5041895;28;20095;-70
2022/12/02 08:27:40;;;;;;;97.30;36.67;;;3.30;99.90;;;2.13;100.00;97943.75;5044153;28;20375;-70
2022/12/02 08:30:14;;;;;;;93.53;34.88;;;3.30;99.90;;;2.12;100.00;97940.31;5049519;28;20075;-70
2022/12/02 08:32:41;;;;;;;79.43;32.55;;;3.20;99.90;;;2.07;100.00;97936.91;5044090;28;20064;-70
2022/12/02 08:35:08;;;;;;;69.03;30.38;;;3.30;99.90;;;2.12;100.00;97937.75;5042734;28;20052;-70
2022/12/02 08:37:35;;;;;;;75.97;32.90;;;3.30;99.90;;;2.17;100.00;97937.75;5046434;28;20045;-70
2022/12/02 08:40:03;;;;;;;78.50;33.53;;;3.30;99.90;;;2.17;100.00;97932.63;5046741;28;20044;-70
2022/12/02 08:42:30;;;;;;;72.65;33.25;;;3.40;99.90;;;2.11;100.00;97937.75;5041436;28;20056;-71
2022/12/02 08:44:57;;;;;;;80.15;33.47;;;3.30;99.90;;;2.18;100.00;97942.00;5040391;28;20506;-70
2022/12/02 08:47:24;;;;;;;76.80;34.42;;;3.30;99.90;;;2.06;100.00;97935.22;5046556;28;20071;-70
2022/12/02 08:49:51;;;;;;;86.50;32.58;;;3.30;99.90;;;2.10;100.00;97942.03;5044052;28;20143;-71
2022/12/02 08:52:18;;;;;;;79.45;34.00;;;3.20;99.90;;;2.19;100.00;97936.88;5043610;28;20049;-71
2022/12/02 08:54:47;;;;;;;75.28;33.05;;;3.30;99.90;;;2.35;100.00;97939.38;5042508;28;20048;-70
2022/12/02 08:57:14;;;;;;;69.47;32.05;;;3.30;99.90;;;2.33;100.00;97933.41;5044889;28;20041;-70
2022/12/02 08:59:41;;;;;;;74.40;31.15;;;3.40;99.90;;;2.31;100.00;97938.53;5045748;28;20415;-71
2022/12/02 09:02:08;;;;;;;72.38;30.48;;;3.40;99.90;;;2.24;100.00;97936.88;5048346;28;20458;-70
2022/12/02 09:04:35;;;;;;;66.68;28.85;;;3.50;99.90;;;2.17;100.00;97930.91;5042654;28;20060;-69
2022/12/02 09:07:02;;;;;;;65.03;27.35;;;3.40;99.90;;;2.08;100.00;97941.19;5050909;28;20053;-70
2022/12/02 09:09:29;;;;;;;56.35;26.20;;;3.20;99.90;;;2.07;100.00;97937.75;5044185;28;20103;-70
2022/12/02 09:11:56;;;;;;;53.30;24.25;;;3.20;99.90;;;2.07;100.00;97931.78;5044678;28;20063;-70
2022/12/02 09:14:23;;;;;;;49.53;23.13;;;3.20;99.90;;;2.20;100.00;97932.63;5038638;28;20411;-70
2022/12/02 09:16:50;;;;;;;52.22;23.45;;;3.20;99.90;;;2.21;100.00;97935.19;5036648;28;20453;-71
2022/12/02 09:19:17;;;;;;;50.42;22.23;;;3.20;99.90;;;2.19;100.00;97934.31;5041644;28;20293;-70
2022/12/02 09:21:44;;;;;;;57.58;24.15;;;3.20;99.90;;;2.11;100.00;97936.06;5044878;28;20059;-71
2022/12/02 09:24:11;;;;;;;58.17;23.55;;;3.20;99.90;;;2.00;100.00;97942.91;5045245;28;20056;-70
2022/12/02 09:26:38;;;;;;;65.15;26.38;;;3.20;99.90;;;1.91;100.00;97938.66;5048151;28;20561;-70
2022/12/02 09:29:04;;;;;;;72.82;27.55;;;3.00;99.90;;;1.96;100.00;97933.53;5039927;28;20053;-71
2022/12/02 09:31:31;;;;;;;70.90;27.02;;;3.00;99.90;;;1.88;100.00;97931.84;5042553;28;20041;-71
2022/12/02 09:33:58;;;;;;;77.30;28.70;;;3.00;99.90;;;1.94;100.00;97930.13;5048014;28;20053;-70
2022/12/02 09:36:25;;;;;;;53.10;24.27;;;3.10;99.90;;;1.93;100.00;97933.53;5045725;28;20045;-70
2022/12/02 09:38:52;;;;;;;84.43;30.55;;;3.00;99.90;;;1.92;100.00;97930.13;5045508;28;20055;-71
2022/12/02 09:41:19;;;;;;;72.65;26.95;;;3.00;99.90;;;1.94;100.00;97935.22;5046396;28;20053;-71
2022/12/02 09:43:46;;;;;;;72.53;28.40;;;3.00;99.90;;;1.96;100.00;97941.22;5060561;28;20103;-71
2022/12/02 09:46:13;;;;;;;77.43;28.83;;;3.00;99.90;;;1.90;100.00;97936.97;5040920;28;20049;-70
2022/12/02 09:48:44;;;;;;;73.82;27.65;;;3.10;99.90;;;1.98;100.00;97935.22;5045689;28;20538;-70
2022/12/02 09:51:11;;;;;;;77.18;30.38;;;3.10;99.90;;;1.98;100.00;97927.53;5044239;28;20045;-70
2022/12/02 09:53:40;;;;;;;91.47;30.52;;;3.00;99.90;;;1.86;100.00;97932.69;5046104;28;20114;-71
2022/12/02 09:56:19;;;;;;;77.72;28.92;;;2.90;99.90;;;1.98;100.00;97924.97;5046048;28;20506;-70
2022/12/02 09:58:50;;;;;;;84.43;29.27;;;3.00;99.90;;;1.97;100.00;97923.28;5047664;28;20052;-70
2022/12/02 10:01:17;;;;;;;124.32;34.35;;;3.00;99.90;;;1.84;100.00;97925.03;5043848;28;20061;-69
2022/12/02 10:03:47;;;;;;;106.63;34.08;;;2.90;99.90;;;1.80;100.00;97919.91;5040828;28;20088;-71
2022/12/02 10:06:24;;;;;;;117.45;36.40;;;2.80;99.90;;;1.84;100.00;97919.06;5043996;28;20064;-71
2022/12/02 10:08:54;;;;;;;128.13;36.40;;;2.90;99.90;;;1.77;100.00;97915.66;5045113;28;20049;-71
2022/12/02 10:11:27;;;;;;;127.22;37.10;;;2.90;99.90;;;1.88;100.00;97920.75;5041794;28;20053;-69
2022/12/02 10:13:55;;;;;;;80.85;31.65;;;3.00;99.90;;;1.81;100.00;97912.25;5043004;28;20063;-70
2022/12/02 10:16:22;;;;;;;138.10;36.97;;;3.00;99.90;;;1.82;100.00;97913.94;5046119;28;20068;-70
2022/12/02 10:18:50;;;;;;;111.05;34.08;;;2.90;99.90;;;1.91;100.00;97915.63;5045192;28;20106;-69
2022/12/02 10:21:16;;;;;;;62.00;26.70;;;3.00;99.90;;;1.97;100.00;97914.75;5039783;28;20056;-71
2022/12/02 10:24:08;;;;;;;68.78;26.95;;;3.00;99.90;;;1.97;100.00;97902.81;5042956;28;20057;-69
2022/12/02 10:26:48;;;;;;;85.55;28.88;;;3.00;99.90;;;1.91;100.00;97904.53;5043577;28;20057;-71
2022/12/02 10:29:28;;;;;;;79.28;28.02;;;3.00;99.90;;;1.83;100.00;97899.44;5045392;28;20485;-70
2022/12/02 10:31:59;;;;;;;73.75;27.20;;;2.90;99.90;;;1.80;100.00;97900.31;5040785;28;20063;-70